Skip Navigation Links Skip Navigation Links

Current Weather

Marks Muni, Clarksville, Va.

For information only: do not use for flight planning or navigation.
Latest weather
Observation time Friday, December 4, 2020 2:35 AM EST
Local time Friday, December 4, 2020 2:32 AM EST
Flight conditions Visual Meteorological Conditions
Winds
Wind direction South (180°)
Wind speed 3 mph
Visibility 10 mi.
Sky condition
Ceiling 12,000 ft. broken clouds
Cloud layer broken clouds 12,000 ft.
Temperature 43°F
Dewpoint 30°F
Altimeter 30.21 in.Hg
Derived measurements
Relative humidity 61%
Wind chill 41°F
Density altitude -908 ft.
Remarks
Fully automated report.
Automated weather observing station without precipitation discriminator.
METAR KW63 040735Z AUTO 18003KT 10SM BKN120 06/M01 A3021 RMK AO1

Settings

Location code

InnerDrive.Weather 4.0.6770.0 Release CLR 4.0.30319.42000
Copyright ©2018 Inner Drive Technology. All rights reserved. Portions Copyright ©1986-2018 David Braverman.

Find weather

Site navigation


Skip Navigation Links

Place info

Page info

PayPal - The safer, easier way to pay online!

Return home.

Copyright ©2020 Inner Drive Technology. Purveyors of fine, hand-crafted computer software. Page printed 2020-12-04T07:32:21 UTC.